sensor_id;sensor_type;location;lat;lon;timestamp;pressure;altitude;pressure_sealevel;temperature;humidity
57779;BME280;43608;49.486;9.640;2023-03-03T00:00:06;98936.66;;;-1.25;76.83
57779;BME280;43608;49.486;9.640;2023-03-03T00:00:37;98948.00;;;-1.23;76.92
57779;BME280;43608;49.486;9.640;2023-03-03T00:01:08;98961.28;;;-1.17;76.81
57779;BME280;43608;49.486;9.640;2023-03-03T00:01:38;98979.06;;;-1.08;76.77
57779;BME280;43608;49.486;9.640;2023-03-03T00:02:09;98969.38;;;-1.10;76.82
57779;BME280;43608;49.486;9.640;2023-03-03T00:02:39;98957.66;;;-1.20;76.78
57779;BME280;43608;49.486;9.640;2023-03-03T00:03:18;98960.47;;;-1.15;77.00
57779;BME280;43608;49.486;9.640;2023-03-03T00:03:48;98969.22;;;-1.13;76.83
57779;BME280;43608;49.486;9.640;2023-03-03T00:04:19;98950.47;;;-1.26;77.14
57779;BME280;43608;49.486;9.640;2023-03-03T00:04:49;98978.06;;;-1.10;76.87
57779;BME280;43608;49.486;9.640;2023-03-03T00:05:19;98969.09;;;-1.17;77.22
57779;BME280;43608;49.486;9.640;2023-03-03T00:05:51;98969.22;;;-1.13;77.12
57779;BME280;43608;49.486;9.640;2023-03-03T00:06:21;98964.78;;;-1.16;76.84
57779;BME280;43608;49.486;9.640;2023-03-03T00:06:53;98959.31;;;-1.22;77.18
57779;BME280;43608;49.486;9.640;2023-03-03T00:07:23;98969.09;;;-1.17;76.98
57779;BME280;43608;49.486;9.640;2023-03-03T00:07:54;98959.31;;;-1.22;76.97
57779;BME280;43608;49.486;9.640;2023-03-03T00:08:25;98975.25;;;-1.14;76.87
57779;BME280;43608;49.486;9.640;2023-03-03T00:08:56;98964.72;;;-1.18;76.65
57779;BME280;43608;49.486;9.640;2023-03-03T00:09:27;98953.06;;;-1.26;76.97
57779;BME280;43608;49.486;9.640;2023-03-03T00:09:57;98963.66;;;-1.21;76.48
57779;BME280;43608;49.486;9.640;2023-03-03T00:10:27;98929.88;;;-1.39;76.98
57779;BME280;43608;49.486;9.640;2023-03-03T00:10:58;98972.50;;;-1.18;76.94
57779;BME280;43608;49.486;9.640;2023-03-03T00:11:30;98968.00;;;-1.22;76.94
57779;BME280;43608;49.486;9.640;2023-03-03T00:12:01;98964.41;;;-1.24;76.88
57779;BME280;43608;49.486;9.640;2023-03-03T00:12:48;98970.53;;;-1.23;76.95
57779;BME280;43608;49.486;9.640;2023-03-03T00:13:21;98954.69;;;-1.28;76.96
57779;BME280;43608;49.486;9.640;2023-03-03T00:13:54;98967.13;;;-1.22;76.93
57779;BME280;43608;49.486;9.640;2023-03-03T00:14:32;98947.28;;;-1.38;77.04
57779;BME280;43608;49.486;9.640;2023-03-03T00:15:13;98966.94;;;-1.25;77.32
57779;BME280;43608;49.486;9.640;2023-03-03T00:15:44;98952.72;;;-1.34;76.98
57779;BME280;43608;49.486;9.640;2023-03-03T00:16:24;98975.72;;;-1.23;77.12
57779;BME280;43608;49.486;9.640;2023-03-03T00:16:55;98948.25;;;-1.36;77.20
57779;BME280;43608;49.486;9.640;2023-03-03T00:17:28;98954.50;;;-1.33;77.33
57779;BME280;43608;49.486;9.640;2023-03-03T00:17:59;98963.25;;;-1.30;77.24
57779;BME280;43608;49.486;9.640;2023-03-03T00:18:34;98972.16;;;-1.25;77.23
57779;BME280;43608;49.486;9.640;2023-03-03T00:19:17;98969.25;;;-1.31;76.92
57779;BME280;43608;49.486;9.640;2023-03-03T00:19:47;98956.78;;;-1.39;77.05
57779;BME280;43608;49.486;9.640;2023-03-03T00:20:57;98966.59;;;-1.33;77.14
57779;BME280;43608;49.486;9.640;2023-03-03T00:21:32;98974.63;;;-1.28;77.05
57779;BME280;43608;49.486;9.640;2023-03-03T00:22:21;98976.25;;;-1.30;77.10
57779;BME280;43608;49.486;9.640;2023-03-03T00:22:53;98964.53;;;-1.40;77.01
57779;BME280;43608;49.486;9.640;2023-03-03T00:24:45;98967.25;;;-1.37;77.01
57779;BME280;43608;49.486;9.640;2023-03-03T00:25:30;98976.91;;;-1.35;77.15
57779;BME280;43608;49.486;9.640;2023-03-03T00:26:15;98931.63;;;-1.58;76.98
57779;BME280;43608;49.486;9.640;2023-03-03T00:26:55;98975.06;;;-1.37;77.33
57779;BME280;43608;49.486;9.640;2023-03-03T00:27:35;98963.41;;;-1.45;77.08
57779;BME280;43608;49.486;9.640;2023-03-03T00:28:29;98973.22;;;-1.40;77.15
57779;BME280;43608;49.486;9.640;2023-03-03T00:29:00;98954.28;;;-1.55;76.90
57779;BME280;43608;49.486;9.640;2023-03-03T00:29:36;98976.63;;;-1.41;77.32
57779;BME280;43608;49.486;9.640;2023-03-03T00:30:19;98978.34;;;-1.41;77.08
57779;BME280;43608;49.486;9.640;2023-03-03T00:30:54;98978.34;;;-1.41;77.09
57779;BME280;43608;49.486;9.640;2023-03-03T00:31:34;98940.09;;;-1.62;77.26
57779;BME280;43608;49.486;9.640;2023-03-03T00:32:44;98972.03;;;-1.46;77.28
57779;BME280;43608;49.486;9.640;2023-03-03T00:33:30;98958.34;;;-1.60;77.30
57779;BME280;43608;49.486;9.640;2023-03-03T00:34:25;98977.91;;;-1.51;77.23
57779;BME280;43608;49.486;9.640;2023-03-03T00:35:07;98980.56;;;-1.49;77.26
57779;BME280;43608;49.486;9.640;2023-03-03T00:35:46;98987.56;;;-1.48;77.51
57779;BME280;43608;49.486;9.640;2023-03-03T00:36:26;98988.44;;;-1.47;77.49
57779;BME280;43608;49.486;9.640;2023-03-03T00:37:00;98970.47;;;-1.61;77.60
57779;BME280;43608;49.486;9.640;2023-03-03T00:37:34;98991.03;;;-1.47;77.55
57779;BME280;43608;49.486;9.640;2023-03-03T00:38:16;98984.88;;;-1.50;77.39
57779;BME280;43608;49.486;9.640;2023-03-03T00:38:48;98985.78;;;-1.49;77.48
57779;BME280;43608;49.486;9.640;2023-03-03T00:40:10;98978.66;;;-1.53;77.70
57779;BME280;43608;49.486;9.640;2023-03-03T00:40:43;98989.13;;;-1.52;77.43
57779;BME280;43608;49.486;9.640;2023-03-03T00:41:25;98986.50;;;-1.52;77.30
57779;BME280;43608;49.486;9.640;2023-03-03T00:41:57;98946.41;;;-1.75;77.55
57779;BME280;43608;49.486;9.640;2023-03-03T00:42:27;98979.22;;;-1.59;77.75
57779;BME280;43608;49.486;9.640;2023-03-03T00:42:59;98982.94;;;-1.54;77.98
57779;BME280;43608;49.486;9.640;2023-03-03T00:43:34;98988.88;;;-1.56;77.65
57779;BME280;43608;49.486;9.640;2023-03-03T00:44:30;98990.59;;;-1.57;77.67
57779;BME280;43608;49.486;9.640;2023-03-03T00:45:21;98989.72;;;-1.57;78.06
57779;BME280;43608;49.486;9.640;2023-03-03T00:45:54;98957.69;;;-1.74;77.96
57779;BME280;43608;49.486;9.640;2023-03-03T00:46:25;98969.44;;;-1.64;77.71
57779;BME280;43608;49.486;9.640;2023-03-03T00:46:56;98983.47;;;-1.61;77.67
57779;BME280;43608;49.486;9.640;2023-03-03T00:47:35;98964.72;;;-1.72;77.62
57779;BME280;43608;49.486;9.640;2023-03-03T00:48:47;98962.97;;;-1.73;77.75
57779;BME280;43608;49.486;9.640;2023-03-03T00:49:25;98959.41;;;-1.75;77.80
57779;BME280;43608;49.486;9.640;2023-03-03T00:50:55;98976.25;;;-1.67;77.88
57779;BME280;43608;49.486;9.640;2023-03-03T00:51:30;98962.97;;;-1.73;77.73
57779;BME280;43608;49.486;9.640;2023-03-03T00:52:00;98964.59;;;-1.75;77.73
57779;BME280;43608;49.486;9.640;2023-03-03T00:52:34;98973.50;;;-1.70;77.84
57779;BME280;43608;49.486;9.640;2023-03-03T00:53:05;98983.16;;;-1.67;77.89
57779;BME280;43608;49.486;9.640;2023-03-03T00:53:36;98963.53;;;-1.78;78.09
57779;BME280;43608;49.486;9.640;2023-03-03T00:54:06;98978.56;;;-1.73;77.99
57779;BME280;43608;49.486;9.640;2023-03-03T00:54:37;98958.94;;;-1.84;78.09
57779;BME280;43608;49.486;9.640;2023-03-03T00:55:07;98966.00;;;-1.81;78.26
57779;BME280;43608;49.486;9.640;2023-03-03T00:55:38;98970.53;;;-1.77;78.04
57779;BME280;43608;49.486;9.640;2023-03-03T00:56:09;98946.31;;;-1.94;78.32
57779;BME280;43608;49.486;9.640;2023-03-03T00:56:39;98945.66;;;-1.90;78.54
57779;BME280;43608;49.486;9.640;2023-03-03T00:57:10;98975.00;;;-1.75;78.15
57779;BME280;43608;49.486;9.640;2023-03-03T00:57:41;98964.38;;;-1.79;78.19
57779;BME280;43608;49.486;9.640;2023-03-03T00:58:12;98970.22;;;-1.84;78.25
57779;BME280;43608;49.486;9.640;2023-03-03T00:58:43;98977.38;;;-1.79;78.30
57779;BME280;43608;49.486;9.640;2023-03-03T00:59:14;98949.00;;;-1.93;78.24
57779;BME280;43608;49.486;9.640;2023-03-03T00:59:45;98969.47;;;-1.81;78.26
57779;BME280;43608;49.486;9.640;2023-03-03T01:00:15;98984.50;;;-1.75;78.25
57779;BME280;43608;49.486;9.640;2023-03-03T01:00:47;98979.06;;;-1.80;78.31
57779;BME280;43608;49.486;9.640;2023-03-03T01:01:18;98959.63;;;-1.88;78.17
57779;BME280;43608;49.486;9.640;2023-03-03T01:01:49;98954.19;;;-1.93;78.25
57779;BME280;43608;49.486;9.640;2023-03-03T01:02:19;98957.84;;;-1.89;78.05
57779;BME280;43608;49.486;9.640;2023-03-03T01:02:49;98984.34;;;-1.78;78.28
57779;BME280;43608;49.486;9.640;2023-03-03T01:03:22;98982.56;;;-1.79;78.27
57779;BME280;43608;49.486;9.640;2023-03-03T01:03:54;98970.75;;;-1.91;78.14
57779;BME280;43608;49.486;9.640;2023-03-03T01:04:24;98959.25;;;-1.96;78.39
57779;BME280;43608;49.486;9.640;2023-03-03T01:04:54;98965.50;;;-1.92;78.29
57779;BME280;43608;49.486;9.640;2023-03-03T01:05:25;98950.16;;;-2.04;78.38
57779;BME280;43608;49.486;9.640;2023-03-03T01:05:55;98963.69;;;-1.93;78.36
57779;BME280;43608;49.486;9.640;2023-03-03T01:06:26;98968.72;;;-1.96;78.38
57779;BME280;43608;49.486;9.640;2023-03-03T01:06:57;98987.28;;;-1.89;78.34
57779;BME280;43608;49.486;9.640;2023-03-03T01:07:27;98983.00;;;-1.88;78.44
57779;BME280;43608;49.486;9.640;2023-03-03T01:07:58;98982.75;;;-1.93;78.26
57779;BME280;43608;49.486;9.640;2023-03-03T01:08:28;98985.53;;;-1.90;78.57
57779;BME280;43608;49.486;9.640;2023-03-03T01:08:59;98971.31;;;-1.96;78.52
57779;BME280;43608;49.486;9.640;2023-03-03T01:09:29;98982.84;;;-1.91;78.51
57779;BME280;43608;49.486;9.640;2023-03-03T01:09:59;98950.75;;;-2.10;78.31
57779;BME280;43608;49.486;9.640;2023-03-03T01:10:33;98960.41;;;-2.07;78.72
57779;BME280;43608;49.486;9.640;2023-03-03T01:11:13;98956.13;;;-2.07;78.38
57779;BME280;43608;49.486;9.640;2023-03-03T01:11:45;98981.94;;;-1.92;78.50
57779;BME280;43608;49.486;9.640;2023-03-03T01:12:16;98990.56;;;-1.93;78.42
57779;BME280;43608;49.486;9.640;2023-03-03T01:12:46;98981.81;;;-1.95;78.56
57779;BME280;43608;49.486;9.640;2023-03-03T01:13:18;98987.81;;;-1.96;78.46
57779;BME280;43608;49.486;9.640;2023-03-03T01:13:50;98986.03;;;-1.97;78.36
57779;BME280;43608;49.486;9.640;2023-03-03T01:14:21;98984.09;;;-2.01;78.50
57779;BME280;43608;49.486;9.640;2023-03-03T01:14:52;98985.03;;;-1.99;78.49
57779;BME280;43608;49.486;9.640;2023-03-03T01:15:24;98968.06;;;-2.10;78.58
57779;BME280;43608;49.486;9.640;2023-03-03T01:15:55;98956.53;;;-2.16;78.62
57779;BME280;43608;49.486;9.640;2023-03-03T01:16:25;98988.56;;;-1.98;78.84
57779;BME280;43608;49.486;9.640;2023-03-03T01:16:55;98968.94;;;-2.10;78.43
57779;BME280;43608;49.486;9.640;2023-03-03T01:17:26;98979.72;;;-2.02;78.66
57779;BME280;43608;49.486;9.640;2023-03-03T01:17:56;98992.75;;;-2.01;78.65
57779;BME280;43608;49.486;9.640;2023-03-03T01:18:27;98991.06;;;-2.00;78.82
57779;BME280;43608;49.486;9.640;2023-03-03T01:18:57;98990.97;;;-2.02;78.64
57779;BME280;43608;49.486;9.640;2023-03-03T01:19:28;98977.53;;;-2.11;78.48
57779;BME280;43608;49.486;9.640;2023-03-03T01:19:59;98984.03;;;-2.03;78.76
57779;BME280;43608;49.486;9.640;2023-03-03T01:20:29;98970.47;;;-2.13;78.46
57779;BME280;43608;49.486;9.640;2023-03-03T01:20:59;98977.53;;;-2.11;78.61
57779;BME280;43608;49.486;9.640;2023-03-03T01:21:31;98981.09;;;-2.09;78.72
57779;BME280;43608;49.486;9.640;2023-03-03T01:22:01;98987.44;;;-2.04;78.60
57779;BME280;43608;49.486;9.640;2023-03-03T01:22:32;98980.13;;;-2.11;78.39
57779;BME280;43608;49.486;9.640;2023-03-03T01:23:02;98970.56;;;-2.12;78.52
57779;BME280;43608;49.486;9.640;2023-03-03T01:23:33;98982.09;;;-2.07;78.62
57779;BME280;43608;49.486;9.640;2023-03-03T01:24:04;98961.66;;;-2.17;78.53
57779;BME280;43608;49.486;9.640;2023-03-03T01:24:34;98960.75;;;-2.18;78.83
57779;BME280;43608;49.486;9.640;2023-03-03T01:25:05;98953.31;;;-2.28;78.60
57779;BME280;43608;49.486;9.640;2023-03-03T01:25:35;98980.31;;;-2.08;78.71
57779;BME280;43608;49.486;9.640;2023-03-03T01:26:06;98983.78;;;-2.07;78.83
57779;BME280;43608;49.486;9.640;2023-03-03T01:26:36;98962.28;;;-2.21;78.81
57779;BME280;43608;49.486;9.640;2023-03-03T01:27:07;98965.88;;;-2.19;78.83
57779;BME280;43608;49.486;9.640;2023-03-03T01:27:37;98961.56;;;-2.19;78.78
57779;BME280;43608;49.486;9.640;2023-03-03T01:28:08;98967.81;;;-2.15;78.88
57779;BME280;43608;49.486;9.640;2023-03-03T01:28:38;98916.09;;;-2.45;78.69
57779;BME280;43608;49.486;9.640;2023-03-03T01:29:09;98971.31;;;-2.14;78.87
57779;BME280;43608;49.486;9.640;2023-03-03T01:29:39;98982.66;;;-2.12;78.92
57779;BME280;43608;49.486;9.640;2023-03-03T01:30:10;98954.59;;;-2.20;78.80
57779;BME280;43608;49.486;9.640;2023-03-03T01:30:40;98956.06;;;-2.25;78.92
57779;BME280;43608;49.486;9.640;2023-03-03T01:31:10;98953.38;;;-2.26;79.06
57779;BME280;43608;49.486;9.640;2023-03-03T01:31:41;98973.91;;;-2.14;78.89
57779;BME280;43608;49.486;9.640;2023-03-03T01:32:12;98944.38;;;-2.33;78.84
57779;BME280;43608;49.486;9.640;2023-03-03T01:32:42;98953.47;;;-2.25;78.73
57779;BME280;43608;49.486;9.640;2023-03-03T01:33:13;98964.00;;;-2.22;78.82
57779;BME280;43608;49.486;9.640;2023-03-03T01:33:43;98984.50;;;-2.10;79.00
57779;BME280;43608;49.486;9.640;2023-03-03T01:34:13;98968.72;;;-2.14;78.94
57779;BME280;43608;49.486;9.640;2023-03-03T01:34:44;98975.53;;;-2.17;79.01
57779;BME280;43608;49.486;9.640;2023-03-03T01:35:14;98971.13;;;-2.18;78.80
57779;BME280;43608;49.486;9.640;2023-03-03T01:35:46;98942.53;;;-2.36;78.96
57779;BME280;43608;49.486;9.640;2023-03-03T01:36:28;98987.78;;;-2.14;78.98
57779;BME280;43608;49.486;9.640;2023-03-03T01:36:58;98987.78;;;-2.14;78.92
57779;BME280;43608;49.486;9.640;2023-03-03T01:37:30;98968.97;;;-2.26;79.08
57779;BME280;43608;49.486;9.640;2023-03-03T01:38:00;98982.59;;;-2.14;79.15
57779;BME280;43608;49.486;9.640;2023-03-03T01:38:31;98963.75;;;-2.26;79.18
57779;BME280;43608;49.486;9.640;2023-03-03T01:39:01;98982.50;;;-2.16;79.11
57779;BME280;43608;49.486;9.640;2023-03-03T01:39:32;98949.44;;;-2.36;79.12
57779;BME280;43608;49.486;9.640;2023-03-03T01:40:07;98974.31;;;-2.23;79.01
57779;BME280;43608;49.486;9.640;2023-03-03T01:40:41;98957.38;;;-2.33;78.98
57779;BME280;43608;49.486;9.640;2023-03-03T01:41:12;98903.06;;;-2.63;79.20
57779;BME280;43608;49.486;9.640;2023-03-03T01:41:42;98965.41;;;-2.28;79.20
57779;BME280;43608;49.486;9.640;2023-03-03T01:42:12;98952.84;;;-2.37;79.04
57779;BME280;43608;49.486;9.640;2023-03-03T01:42:44;98966.81;;;-2.35;78.85
57779;BME280;43608;49.486;9.640;2023-03-03T01:43:15;98950.91;;;-2.41;79.12
57779;BME280;43608;49.486;9.640;2023-03-03T01:43:48;98984.72;;;-2.23;79.02
57779;BME280;43608;49.486;9.640;2023-03-03T01:44:19;98900.81;;;-2.73;78.79
57779;BME280;43608;49.486;9.640;2023-03-03T01:45:10;98986.25;;;-2.27;79.00
57779;BME280;43608;49.486;9.640;2023-03-03T01:47:53;98990.47;;;-2.29;79.00
57779;BME280;43608;49.486;9.640;2023-03-03T01:48:39;98959.03;;;-2.52;78.60
57779;BME280;43608;49.486;9.640;2023-03-03T01:49:15;98988.59;;;-2.32;78.94
57779;BME280;43608;49.486;9.640;2023-03-03T01:50:10;98984.13;;;-2.34;78.84
57779;BME280;43608;49.486;9.640;2023-03-03T01:50:51;98992.84;;;-2.34;78.99
57779;BME280;43608;49.486;9.640;2023-03-03T01:51:28;98960.81;;;-2.51;79.01
57779;BME280;43608;49.486;9.640;2023-03-03T01:52:09;98975.97;;;-2.42;78.95
57779;BME280;43608;49.486;9.640;2023-03-03T01:52:43;98966.97;;;-2.49;79.15
57779;BME280;43608;49.486;9.640;2023-03-03T01:53:22;98986.59;;;-2.37;79.13
57779;BME280;43608;49.486;9.640;2023-03-03T01:53:58;98978.47;;;-2.43;79.25
57779;BME280;43608;49.486;9.640;2023-03-03T01:54:41;98985.63;;;-2.39;79.09
57779;BME280;43608;49.486;9.640;2023-03-03T01:55:18;98986.50;;;-2.39;79.25
57779;BME280;43608;49.486;9.640;2023-03-03T01:55:51;98966.00;;;-2.51;79.39
57779;BME280;43608;49.486;9.640;2023-03-03T01:56:23;98956.09;;;-2.58;79.04
57779;BME280;43608;49.486;9.640;2023-03-03T01:56:58;98987.31;;;-2.40;79.27
57779;BME280;43608;49.486;9.640;2023-03-03T01:57:32;98979.38;;;-2.43;79.34
57779;BME280;43608;49.486;9.640;2023-03-03T01:58:30;98978.47;;;-2.43;79.21
57779;BME280;43608;49.486;9.640;2023-03-03T01:59:12;98983.78;;;-2.42;79.24
57779;BME280;43608;49.486;9.640;2023-03-03T01:59:46;98949.97;;;-2.60;79.55
57779;BME280;43608;49.486;9.640;2023-03-03T02:00:18;98958.69;;;-2.58;79.01
57779;BME280;43608;49.486;9.640;2023-03-03T02:00:52;98971.34;;;-2.47;79.25
57779;BME280;43608;49.486;9.640;2023-03-03T02:01:26;98981.06;;;-2.43;79.22
57779;BME280;43608;49.486;9.640;2023-03-03T02:01:57;98978.47;;;-2.43;79.59
57779;BME280;43608;49.486;9.640;2023-03-03T02:02:28;98976.72;;;-2.44;79.35
57779;BME280;43608;49.486;9.640;2023-03-03T02:02:59;98976.63;;;-2.46;79.39
57779;BME280;43608;49.486;9.640;2023-03-03T02:03:29;98953.44;;;-2.59;79.34
57779;BME280;43608;49.486;9.640;2023-03-03T02:04:00;98983.66;;;-2.43;79.44
57779;BME280;43608;49.486;9.640;2023-03-03T02:04:30;98963.09;;;-2.57;79.29
57779;BME280;43608;49.486;9.640;2023-03-03T02:05:01;98975.81;;;-2.45;79.04
57779;BME280;43608;49.486;9.640;2023-03-03T02:05:32;98973.13;;;-2.46;79.80
57779;BME280;43608;49.486;9.640;2023-03-03T02:06:07;98972.25;;;-2.47;79.42
57779;BME280;43608;49.486;9.640;2023-03-03T02:06:41;98974.69;;;-2.50;79.18
57779;BME280;43608;49.486;9.640;2023-03-03T02:07:14;98947.13;;;-2.64;79.48
57779;BME280;43608;49.486;9.640;2023-03-03T02:07:45;98976.38;;;-2.51;79.61
57779;BME280;43608;49.486;9.640;2023-03-03T02:08:20;98973.00;;;-2.50;79.58
57779;BME280;43608;49.486;9.640;2023-03-03T02:10:13;98972.06;;;-2.50;79.70
57779;BME280;43608;49.486;9.640;2023-03-03T02:10:45;98978.19;;;-2.50;79.60
57779;BME280;43608;49.486;9.640;2023-03-03T02:11:16;98974.69;;;-2.50;79.80
57779;BME280;43608;49.486;9.640;2023-03-03T02:11:50;98977.28;;;-2.50;79.57
57779;BME280;43608;49.486;9.640;2023-03-03T02:12:27;98965.69;;;-2.57;79.66
57779;BME280;43608;49.486;9.640;2023-03-03T02:13:00;98969.41;;;-2.52;79.53
57779;BME280;43608;49.486;9.640;2023-03-03T02:13:31;98961.22;;;-2.59;79.47
57779;BME280;43608;49.486;9.640;2023-03-03T02:14:01;98972.00;;;-2.52;79.31
57779;BME280;43608;49.486;9.640;2023-03-03T02:14:32;98965.75;;;-2.55;79.64
57779;BME280;43608;49.486;9.640;2023-03-03T02:15:49;98941.44;;;-2.74;79.42
57779;BME280;43608;49.486;9.640;2023-03-03T02:16:20;98954.09;;;-2.63;79.50
57779;BME280;43608;49.486;9.640;2023-03-03T02:16:50;98954.09;;;-2.63;79.58
57779;BME280;43608;49.486;9.640;2023-03-03T02:17:21;98956.75;;;-2.62;79.70
57779;BME280;43608;49.486;9.640;2023-03-03T02:17:54;98947.69;;;-2.70;79.81
57779;BME280;43608;49.486;9.640;2023-03-03T02:18:26;98922.16;;;-2.79;79.36
57779;BME280;43608;49.486;9.640;2023-03-03T02:18:57;98960.25;;;-2.61;79.51
57779;BME280;43608;49.486;9.640;2023-03-03T02:19:51;98964.81;;;-2.57;79.20
57779;BME280;43608;49.486;9.640;2023-03-03T02:21:34;98945.84;;;-2.73;79.20
57779;BME280;43608;49.486;9.640;2023-03-03T02:22:04;98966.34;;;-2.61;79.26
57779;BME280;43608;49.486;9.640;2023-03-03T02:22:54;98970.63;;;-2.61;79.31
57779;BME280;43608;49.486;9.640;2023-03-03T02:24:27;98944.53;;;-2.81;79.52
57779;BME280;43608;49.486;9.640;2023-03-03T02:25:01;98935.59;;;-2.86;79.44
57779;BME280;43608;49.486;9.640;2023-03-03T02:26:29;98951.56;;;-2.78;79.31
57779;BME280;43608;49.486;9.640;2023-03-03T02:27:00;98963.19;;;-2.72;79.54
57779;BME280;43608;49.486;9.640;2023-03-03T02:27:31;98969.41;;;-2.68;79.79
57779;BME280;43608;49.486;9.640;2023-03-03T02:28:02;98955.22;;;-2.75;79.31
57779;BME280;43608;49.486;9.640;2023-03-03T02:28:34;98959.63;;;-2.74;79.56
57779;BME280;43608;49.486;9.640;2023-03-03T02:29:05;98965.06;;;-2.69;79.65
57779;BME280;43608;49.486;9.640;2023-03-03T02:29:36;98956.03;;;-2.76;79.48
57779;BME280;43608;49.486;9.640;2023-03-03T02:30:21;98966.81;;;-2.68;79.64
57779;BME280;43608;49.486;9.640;2023-03-03T02:30:56;98965.88;;;-2.70;79.81
57779;BME280;43608;49.486;9.640;2023-03-03T02:31:28;98965.88;;;-2.70;79.68
57779;BME280;43608;49.486;9.640;2023-03-03T02:31:59;98962.22;;;-2.74;79.42
57779;BME280;43608;49.486;9.640;2023-03-03T02:32:29;98948.91;;;-2.80;79.69
57779;BME280;43608;49.486;9.640;2023-03-03T02:33:00;98949.72;;;-2.81;80.04
57779;BME280;43608;49.486;9.640;2023-03-03T02:33:30;98970.06;;;-2.72;79.64
57779;BME280;43608;49.486;9.640;2023-03-03T02:34:01;98935.31;;;-2.92;80.07
57779;BME280;43608;49.486;9.640;2023-03-03T02:34:44;98948.75;;;-2.83;79.81
57779;BME280;43608;49.486;9.640;2023-03-03T02:35:59;98964.53;;;-2.78;79.64
57779;BME280;43608;49.486;9.640;2023-03-03T02:36:32;98955.81;;;-2.80;79.61
57779;BME280;43608;49.486;9.640;2023-03-03T02:37:03;98934.31;;;-2.94;79.40
57779;BME280;43608;49.486;9.640;2023-03-03T02:37:33;98966.34;;;-2.77;79.54
57779;BME280;43608;49.486;9.640;2023-03-03T02:38:27;98969.91;;;-2.75;79.68
57779;BME280;43608;49.486;9.640;2023-03-03T02:39:06;98968.13;;;-2.76;79.65
57779;BME280;43608;49.486;9.640;2023-03-03T02:39:37;98940.16;;;-2.99;79.47
57779;BME280;43608;49.486;9.640;2023-03-03T02:40:08;98933.09;;;-3.01;79.50
57779;BME280;43608;49.486;9.640;2023-03-03T02:40:46;98966.25;;;-2.79;79.76
57779;BME280;43608;49.486;9.640;2023-03-03T02:42:23;98974.84;;;-2.80;79.96
57779;BME280;43608;49.486;9.640;2023-03-03T02:42:57;98951.91;;;-2.89;79.52
57779;BME280;43608;49.486;9.640;2023-03-03T02:44:35;98892.91;;;-3.26;79.45
57779;BME280;43608;49.486;9.640;2023-03-03T02:45:06;98958.72;;;-2.91;79.74
57779;BME280;43608;49.486;9.640;2023-03-03T02:45:43;98960.41;;;-2.91;79.37
57779;BME280;43608;49.486;9.640;2023-03-03T02:46:14;98929.31;;;-3.08;79.46
57779;BME280;43608;49.486;9.640;2023-03-03T02:46:46;98956.94;;;-2.92;79.51
57779;BME280;43608;49.486;9.640;2023-03-03T02:47:17;98961.47;;;-2.88;79.38
57779;BME280;43608;49.486;9.640;2023-03-03T02:47:48;98971.91;;;-2.86;79.45
57779;BME280;43608;49.486;9.640;2023-03-03T02:48:19;98974.50;;;-2.86;79.88
57779;BME280;43608;49.486;9.640;2023-03-03T02:48:50;98964.88;;;-2.89;79.75
57779;BME280;43608;49.486;9.640;2023-03-03T02:49:23;98965.78;;;-2.88;79.63
57779;BME280;43608;49.486;9.640;2023-03-03T02:49:54;98914.06;;;-3.18;79.62
57779;BME280;43608;49.486;9.640;2023-03-03T02:50:24;98960.25;;;-2.94;79.82
57779;BME280;43608;49.486;9.640;2023-03-03T02:50:55;98963.56;;;-2.97;79.62
57779;BME280;43608;49.486;9.640;2023-03-03T02:51:25;98964.63;;;-2.93;79.69
57779;BME280;43608;49.486;9.640;2023-03-03T02:51:55;98960.81;;;-3.00;79.41
57779;BME280;43608;49.486;9.640;2023-03-03T02:52:26;98940.63;;;-3.06;79.78
57779;BME280;43608;49.486;9.640;2023-03-03T02:52:56;98968.84;;;-2.95;79.55
57779;BME280;43608;49.486;9.640;2023-03-03T02:53:27;98971.44;;;-2.95;79.42
57779;BME280;43608;49.486;9.640;2023-03-03T02:53:57;98935.84;;;-3.14;79.47
57779;BME280;43608;49.486;9.640;2023-03-03T02:54:29;98951.72;;;-3.08;79.52
57779;BME280;43608;49.486;9.640;2023-03-03T02:55:00;98981.06;;;-2.93;79.40
57779;BME280;43608;49.486;9.640;2023-03-03T02:55:30;98975.81;;;-2.94;79.45
57779;BME280;43608;49.486;9.640;2023-03-03T02:56:00;98951.50;;;-3.13;79.57
57779;BME280;43608;49.486;9.640;2023-03-03T02:56:31;98978.41;;;-2.94;79.70
57779;BME280;43608;49.486;9.640;2023-03-03T02:57:02;98962.19;;;-3.07;79.53
57779;BME280;43608;49.486;9.640;2023-03-03T02:57:33;98986.13;;;-2.96;79.36
57779;BME280;43608;49.486;9.640;2023-03-03T02:58:03;98970.28;;;-3.01;79.66
57779;BME280;43608;49.486;9.640;2023-03-03T02:58:34;98972.00;;;-3.01;79.64
57779;BME280;43608;49.486;9.640;2023-03-03T02:59:05;98979.84;;;-3.00;79.78
57779;BME280;43608;49.486;9.640;2023-03-03T02:59:36;98977.03;;;-3.04;79.70
57779;BME280;43608;49.486;9.640;2023-03-03T03:00:07;98973.59;;;-3.03;79.73
57779;BME280;43608;49.486;9.640;2023-03-03T03:00:38;98970.78;;;-3.08;79.56
57779;BME280;43608;49.486;9.640;2023-03-03T03:01:08;98959.28;;;-3.13;79.47
57779;BME280;43608;49.486;9.640;2023-03-03T03:01:39;98962.75;;;-3.12;79.66
57779;BME280;43608;49.486;9.640;2023-03-03T03:02:09;98946.78;;;-3.20;79.43
57779;BME280;43608;49.486;9.640;2023-03-03T03:02:39;98970.06;;;-3.05;79.70
57779;BME280;43608;49.486;9.640;2023-03-03T03:03:10;98956.41;;;-3.18;79.88
57779;BME280;43608;49.486;9.640;2023-03-03T03:03:41;98972.47;;;-3.08;79.94
57779;BME280;43608;49.486;9.640;2023-03-03T03:04:43;98968.13;;;-3.09;79.82
57779;BME280;43608;49.486;9.640;2023-03-03T03:05:13;98946.69;;;-3.22;79.90
57779;BME280;43608;49.486;9.640;2023-03-03T03:05:44;98948.22;;;-3.25;80.01
57779;BME280;43608;49.486;9.640;2023-03-03T03:06:15;98944.81;;;-3.24;79.71
57779;BME280;43608;49.486;9.640;2023-03-03T03:06:45;98950.09;;;-3.23;79.94
57779;BME280;43608;49.486;9.640;2023-03-03T03:07:16;98981.09;;;-3.09;79.87
57779;BME280;43608;49.486;9.640;2023-03-03T03:07:47;98972.16;;;-3.14;79.84
57779;BME280;43608;49.486;9.640;2023-03-03T03:08:17;98972.03;;;-3.16;79.70
57779;BME280;43608;49.486;9.640;2023-03-03T03:08:47;98978.31;;;-3.12;79.63
57779;BME280;43608;49.486;9.640;2023-03-03T03:09:19;98968.31;;;-3.21;79.61
57779;BME280;43608;49.486;9.640;2023-03-03T03:09:50;98952.38;;;-3.29;79.72
57779;BME280;43608;49.486;9.640;2023-03-03T03:10:20;98983.47;;;-3.12;79.80
57779;BME280;43608;49.486;9.640;2023-03-03T03:10:51;98991.34;;;-3.11;79.58
57779;BME280;43608;49.486;9.640;2023-03-03T03:11:21;98946.03;;;-3.34;80.02